createdAt,value
2022-09-27T00:00:42.992Z,10.90
2022-09-27T00:03:30.420Z,10.90
2022-09-27T00:06:22.951Z,10.90
2022-09-27T00:09:10.564Z,10.90
2022-09-27T00:11:57.616Z,10.80
2022-09-27T00:14:44.548Z,10.80
2022-09-27T00:17:31.736Z,10.80
2022-09-27T00:20:20.284Z,10.80
2022-09-27T00:23:07.877Z,10.80
2022-09-27T00:25:55.990Z,10.80
2022-09-27T00:28:43.134Z,10.80
2022-09-27T00:31:31.000Z,10.80
2022-09-27T00:34:20.378Z,10.80
2022-09-27T00:37:08.322Z,10.80
2022-09-27T00:39:55.927Z,10.80
2022-09-27T00:42:43.082Z,10.80
2022-09-27T00:45:30.062Z,10.80
2022-09-27T00:48:20.782Z,10.80
2022-09-27T00:51:10.050Z,10.80
2022-09-27T00:53:58.492Z,10.70
2022-09-27T00:56:48.296Z,10.70
2022-09-27T00:59:38.501Z,10.70
2022-09-27T01:02:25.964Z,10.80
2022-09-27T01:05:16.230Z,10.80
2022-09-27T01:08:03.279Z,10.70
2022-09-27T01:11:03.345Z,10.80
2022-09-27T01:14:04.030Z,10.70
2022-09-27T01:17:00.780Z,10.70
2022-09-27T01:20:14.847Z,10.70
2022-09-27T01:23:23.322Z,10.70
2022-09-27T01:26:16.521Z,10.70
2022-09-27T01:29:10.772Z,10.70
2022-09-27T01:32:05.776Z,10.60
2022-09-27T01:35:01.943Z,10.60
2022-09-27T01:37:56.902Z,10.60
2022-09-27T01:40:52.881Z,10.50
2022-09-27T01:44:22.779Z,10.50
2022-09-27T01:47:18.602Z,10.50
2022-09-27T01:50:13.014Z,10.40
2022-09-27T01:53:03.286Z,10.40
2022-09-27T01:55:57.435Z,10.40
2022-09-27T01:59:14.442Z,10.40
2022-09-27T02:02:11.334Z,10.40
2022-09-27T02:05:30.378Z,10.40
2022-09-27T02:08:26.171Z,10.40
2022-09-27T02:11:15.877Z,10.40
2022-09-27T02:14:12.580Z,10.40
2022-09-27T02:17:10.447Z,10.40
2022-09-27T02:20:07.587Z,10.40
2022-09-27T02:23:14.503Z,10.30
2022-09-27T02:26:09.091Z,10.20
2022-09-27T02:29:00.956Z,10.20
2022-09-27T02:31:53.656Z,10.10
2022-09-27T02:34:42.427Z,10.10
2022-09-27T02:37:29.884Z,10.10
2022-09-27T02:40:18.759Z,9.90
2022-09-27T02:43:06.404Z,9.90
2022-09-27T02:46:05.413Z,9.90
2022-09-27T02:49:03.596Z,9.80
2022-09-27T02:51:59.164Z,9.80
2022-09-27T02:54:56.953Z,9.80
2022-09-27T02:58:17.238Z,9.80
2022-09-27T03:01:29.563Z,9.70
2022-09-27T03:04:47.441Z,9.70
2022-09-27T03:07:35.293Z,9.70
2022-09-27T03:10:24.938Z,9.70
2022-09-27T03:13:12.845Z,9.70
2022-09-27T03:16:01.773Z,9.70
2022-09-27T03:19:08.943Z,9.70
2022-09-27T03:22:08.634Z,9.60
2022-09-27T03:24:56.749Z,9.60
2022-09-27T03:27:44.005Z,9.60
2022-09-27T03:30:31.890Z,9.60
2022-09-27T03:33:18.913Z,9.60
2022-09-27T03:36:09.721Z,9.60
2022-09-27T03:38:56.681Z,9.60
2022-09-27T03:41:43.668Z,9.50
2022-09-27T03:44:32.035Z,9.50
2022-09-27T03:47:19.705Z,9.50
2022-09-27T03:50:08.126Z,9.50
2022-09-27T03:52:55.111Z,9.50
2022-09-27T03:55:45.713Z,9.50
2022-09-27T03:58:32.693Z,9.50
2022-09-27T04:01:19.924Z,9.40
2022-09-27T04:04:12.798Z,9.40
2022-09-27T04:06:59.806Z,9.40
2022-09-27T04:09:47.078Z,9.40
2022-09-27T04:12:34.515Z,9.40
2022-09-27T04:15:21.498Z,9.30
2022-09-27T04:18:08.447Z,9.40
2022-09-27T04:20:56.047Z,9.40
2022-09-27T04:23:43.138Z,9.30
2022-09-27T04:26:34.235Z,9.30
2022-09-27T04:29:22.871Z,9.30
2022-09-27T04:32:13.059Z,9.30
2022-09-27T04:35:47.565Z,9.30
2022-09-27T04:38:35.542Z,9.30
2022-09-27T04:41:24.005Z,9.30
2022-09-27T04:44:10.969Z,9.30
2022-09-27T04:46:59.674Z,9.30
2022-09-27T04:49:46.727Z,9.30
2022-09-27T04:52:33.759Z,9.30
2022-09-27T04:55:22.059Z,9.30
2022-09-27T04:58:09.133Z,9.30
2022-09-27T05:00:56.197Z,9.30
2022-09-27T05:04:07.742Z,9.30
2022-09-27T05:06:57.866Z,9.30
2022-09-27T05:09:55.881Z,9.30
2022-09-27T05:12:44.171Z,9.30
2022-09-27T05:15:35.413Z,9.30
2022-09-27T05:18:45.593Z,9.30
2022-09-27T05:22:08.393Z,9.40
2022-09-27T05:24:55.482Z,9.30
2022-09-27T05:27:43.158Z,9.40
2022-09-27T05:30:30.424Z,9.40
2022-09-27T05:33:25.861Z,9.40
2022-09-27T05:36:31.690Z,9.40
2022-09-27T05:39:18.823Z,9.40
2022-09-27T05:42:09.378Z,9.40
2022-09-27T05:44:59.294Z,9.40
2022-09-27T05:47:53.598Z,9.40
2022-09-27T05:50:40.925Z,9.50
2022-09-27T05:53:28.130Z,9.50
2022-09-27T05:56:16.330Z,9.50
2022-09-27T05:59:25.734Z,9.60
2022-09-27T06:02:39.225Z,9.60
2022-09-27T06:05:36.901Z,9.60
2022-09-27T06:08:44.590Z,9.60
2022-09-27T06:11:34.846Z,9.60
2022-09-27T06:14:21.843Z,9.60
2022-09-27T06:17:21.170Z,9.60
2022-09-27T06:20:09.392Z,9.60
2022-09-27T06:23:04.747Z,9.70
2022-09-27T06:25:52.511Z,9.70
2022-09-27T06:28:50.947Z,9.70
2022-09-27T06:31:37.918Z,9.70
2022-09-27T06:34:36.139Z,9.70
2022-09-27T06:37:26.155Z,9.80
2022-09-27T06:40:13.433Z,9.80
2022-09-27T06:43:16.112Z,9.80
2022-09-27T06:46:23.375Z,9.90
2022-09-27T06:49:22.155Z,10.00
2022-09-27T06:52:09.671Z,10.00
2022-09-27T06:54:57.271Z,10.10
2022-09-27T06:58:02.743Z,10.10
2022-09-27T07:00:52.048Z,10.10
2022-09-27T07:04:01.784Z,10.20
2022-09-27T07:07:08.381Z,10.30
2022-09-27T07:09:58.715Z,10.40
2022-09-27T07:12:47.883Z,10.40
2022-09-27T07:15:39.940Z,10.50
2022-09-27T07:18:31.549Z,10.60
2022-09-27T07:21:18.992Z,10.60
2022-09-27T07:24:06.852Z,10.60
2022-09-27T07:26:54.648Z,10.60
2022-09-27T07:29:42.908Z,10.60
2022-09-27T07:32:29.933Z,10.60
2022-09-27T07:35:17.084Z,10.50
2022-09-27T07:38:04.687Z,10.50
2022-09-27T07:40:52.270Z,10.60
2022-09-27T07:43:40.375Z,10.70
2022-09-27T07:46:29.759Z,11.00
2022-09-27T07:49:26.852Z,11.10
2022-09-27T07:52:39.707Z,11.20
2022-09-27T07:55:50.215Z,11.10
2022-09-27T07:58:41.252Z,11.10
2022-09-27T08:01:28.934Z,11.20
2022-09-27T08:04:16.055Z,11.20
2022-09-27T08:07:03.076Z,11.20
2022-09-27T08:09:50.199Z,11.10
2022-09-27T08:12:37.242Z,11.10
2022-09-27T08:15:25.360Z,11.10
2022-09-27T08:18:12.476Z,11.00
2022-09-27T08:21:16.744Z,11.10
2022-09-27T08:24:12.076Z,11.10
2022-09-27T08:27:18.340Z,11.00
2022-09-27T08:30:11.675Z,11.00
2022-09-27T08:33:01.671Z,11.10
2022-09-27T08:35:48.675Z,11.10
2022-09-27T08:38:35.879Z,11.10
2022-09-27T08:41:32.611Z,11.10
2022-09-27T08:44:27.499Z,11.10
2022-09-27T08:47:26.907Z,11.10
2022-09-27T08:50:26.223Z,11.20
2022-09-27T08:53:21.570Z,11.20
2022-09-27T08:56:11.424Z,11.20
2022-09-27T08:59:09.977Z,11.20
2022-09-27T09:01:58.001Z,11.20
2022-09-27T09:04:59.842Z,11.30
2022-09-27T09:08:07.637Z,11.50
2022-09-27T09:11:24.193Z,11.60
2022-09-27T09:14:29.270Z,11.60
2022-09-27T09:17:26.782Z,11.70
2022-09-27T09:20:58.122Z,11.70
2022-09-27T09:24:07.360Z,11.70
2022-09-27T09:26:59.741Z,11.70
2022-09-27T09:30:17.640Z,11.70
2022-09-27T09:33:22.164Z,11.80
2022-09-27T09:36:15.354Z,11.80
2022-09-27T09:39:10.539Z,11.90
2022-09-27T09:42:08.560Z,11.80
2022-09-27T09:45:01.485Z,11.70
2022-09-27T09:47:57.372Z,11.50
2022-09-27T09:50:47.172Z,11.70
2022-09-27T09:53:40.970Z,11.80
2022-09-27T09:56:32.498Z,11.90
2022-09-27T09:59:26.278Z,11.90
2022-09-27T10:02:26.633Z,11.90
2022-09-27T10:05:19.760Z,12.10
2022-09-27T10:08:16.604Z,12.10
2022-09-27T10:11:04.379Z,11.90
2022-09-27T10:14:11.724Z,11.90
2022-09-27T10:17:03.978Z,12.10
2022-09-27T10:19:53.457Z,12.10
2022-09-27T10:22:47.604Z,12.00
2022-09-27T10:25:53.648Z,12.00
2022-09-27T10:29:22.484Z,12.00
2022-09-27T10:32:22.655Z,11.90
2022-09-27T10:35:31.210Z,12.00
2022-09-27T10:38:24.420Z,12.00
2022-09-27T10:41:22.057Z,11.90
2022-09-27T10:44:29.090Z,11.80
2022-09-27T10:47:48.579Z,11.80
2022-09-27T10:50:59.236Z,12.00
2022-09-27T10:54:20.890Z,12.20
2022-09-27T10:57:19.326Z,12.30
2022-09-27T11:00:20.245Z,12.40
2022-09-27T11:03:14.305Z,12.30
2022-09-27T11:06:18.905Z,12.20
2022-09-27T11:09:23.511Z,12.20
2022-09-27T11:12:13.941Z,12.10
2022-09-27T11:15:05.884Z,12.30
2022-09-27T11:17:58.987Z,12.50
2022-09-27T11:20:51.096Z,12.70
2022-09-27T11:23:56.082Z,12.70
2022-09-27T11:26:54.682Z,12.70
2022-09-27T11:29:56.896Z,12.70
2022-09-27T11:33:20.352Z,12.80
2022-09-27T11:36:14.501Z,12.60
2022-09-27T11:39:08.910Z,12.50
2022-09-27T11:42:13.409Z,12.30
2022-09-27T11:45:50.393Z,12.30
2022-09-27T11:48:49.963Z,12.30
2022-09-27T11:51:50.250Z,12.40
2022-09-27T11:54:58.594Z,12.40
2022-09-27T11:57:50.696Z,12.50
2022-09-27T12:00:51.517Z,12.70
2022-09-27T12:04:09.855Z,12.70
2022-09-27T12:07:04.116Z,12.70
2022-09-27T12:09:56.767Z,12.70
2022-09-27T12:12:50.780Z,12.70
2022-09-27T12:15:41.787Z,12.70
2022-09-27T12:18:32.009Z,12.70
2022-09-27T12:21:22.567Z,12.70
2022-09-27T12:24:17.579Z,12.80
2022-09-27T12:27:27.371Z,12.80
2022-09-27T12:30:14.478Z,13.00
2022-09-27T12:33:07.667Z,12.90
2022-09-27T12:35:59.909Z,12.80
2022-09-27T12:38:55.288Z,12.80
2022-09-27T12:41:48.813Z,12.80
2022-09-27T12:44:50.629Z,13.10
2022-09-27T12:47:52.853Z,13.10
2022-09-27T12:50:44.097Z,13.10
2022-09-27T12:53:46.176Z,13.10
2022-09-27T12:56:46.512Z,13.40
2022-09-27T12:59:55.367Z,13.20
2022-09-27T13:03:15.778Z,13.10
2022-09-27T13:06:33.534Z,13.10
2022-09-27T13:09:58.481Z,13.10
2022-09-27T13:12:52.521Z,13.30
2022-09-27T13:15:43.148Z,13.30
2022-09-27T13:18:49.233Z,13.40
2022-09-27T13:21:57.026Z,13.50
2022-09-27T13:25:40.411Z,13.50
2022-09-27T13:28:58.646Z,13.50
2022-09-27T13:32:28.176Z,13.40
2022-09-27T13:35:30.439Z,13.30
2022-09-27T13:38:25.642Z,13.40
2022-09-27T13:41:18.078Z,13.40
2022-09-27T13:44:30.575Z,13.30
2022-09-27T13:47:33.459Z,13.40
2022-09-27T13:50:26.258Z,13.30
2022-09-27T13:53:27.443Z,13.10
2022-09-27T13:56:48.297Z,13.10
2022-09-27T13:59:43.278Z,13.20
2022-09-27T14:03:02.109Z,13.00
2022-09-27T14:06:13.053Z,13.00
2022-09-27T14:09:04.052Z,13.10
2022-09-27T14:11:54.540Z,13.10
2022-09-27T14:14:42.767Z,13.00
2022-09-27T14:17:30.658Z,12.90
2022-09-27T14:20:31.874Z,12.70
2022-09-27T14:23:21.789Z,12.50
2022-09-27T14:26:22.131Z,12.50
2022-09-27T14:29:16.522Z,12.40
2022-09-27T14:32:08.402Z,12.50
2022-09-27T14:35:26.919Z,12.60
2022-09-27T14:38:36.483Z,12.80
2022-09-27T14:41:26.396Z,13.00
2022-09-27T14:44:16.749Z,12.80
2022-09-27T14:47:17.975Z,12.80
2022-09-27T14:50:18.360Z,12.70
2022-09-27T14:53:22.291Z,12.60
2022-09-27T14:56:15.414Z,12.80
2022-09-27T14:59:08.175Z,12.80
2022-09-27T15:01:55.066Z,12.90
2022-09-27T15:04:46.007Z,12.90
2022-09-27T15:07:33.149Z,12.70
2022-09-27T15:10:22.676Z,12.60
2022-09-27T15:13:14.750Z,12.60
2022-09-27T15:16:06.297Z,12.60
2022-09-27T15:19:02.709Z,12.60
2022-09-27T15:21:50.247Z,12.60
2022-09-27T15:24:39.247Z,12.60
2022-09-27T15:27:26.944Z,12.40
2022-09-27T15:30:18.152Z,12.40
2022-09-27T15:33:07.064Z,12.40
2022-09-27T15:35:55.730Z,12.40
2022-09-27T15:38:46.624Z,12.40
2022-09-27T15:42:02.943Z,12.30
2022-09-27T15:44:51.594Z,12.30
2022-09-27T15:47:48.138Z,12.30
2022-09-27T15:50:36.746Z,12.10
2022-09-27T15:53:45.216Z,12.00
2022-09-27T15:56:34.305Z,12.00
2022-09-27T15:59:23.093Z,11.90
2022-09-27T16:02:18.564Z,11.80
2022-09-27T16:05:06.359Z,11.70
2022-09-27T16:07:53.316Z,11.60
2022-09-27T16:10:44.689Z,11.60
2022-09-27T16:13:33.204Z,11.50
2022-09-27T16:16:21.798Z,11.50
2022-09-27T16:19:08.907Z,11.50
2022-09-27T16:21:55.855Z,11.50
2022-09-27T16:24:42.731Z,11.40
2022-09-27T16:27:30.288Z,11.40
2022-09-27T16:30:17.403Z,11.30
2022-09-27T16:33:04.250Z,11.20
2022-09-27T16:35:52.085Z,11.20
2022-09-27T16:38:38.918Z,11.20
2022-09-27T16:41:25.759Z,11.10
2022-09-27T16:44:16.492Z,11.10
2022-09-27T16:47:03.852Z,11.10
2022-09-27T16:50:08.868Z,11.10
2022-09-27T16:52:56.069Z,11.00
2022-09-27T16:55:42.924Z,11.10
2022-09-27T16:58:29.850Z,11.00
2022-09-27T17:01:17.648Z,11.10
2022-09-27T17:04:04.606Z,11.00
2022-09-27T17:06:51.497Z,11.00
2022-09-27T17:09:39.189Z,11.00
2022-09-27T17:12:26.101Z,11.00
2022-09-27T17:15:13.453Z,11.00
2022-09-27T17:18:00.951Z,11.00
2022-09-27T17:20:48.058Z,11.00
2022-09-27T17:23:35.471Z,10.90
2022-09-27T17:26:25.661Z,10.90
2022-09-27T17:29:13.172Z,10.90
2022-09-27T17:32:00.218Z,10.80
2022-09-27T17:34:47.676Z,10.80
2022-09-27T17:37:34.561Z,10.70
2022-09-27T17:40:21.421Z,10.70
2022-09-27T17:43:08.289Z,10.70
2022-09-27T17:45:55.156Z,10.70
2022-09-27T17:49:14.738Z,10.60
2022-09-27T17:52:02.341Z,10.60
2022-09-27T17:54:50.853Z,10.60
2022-09-27T17:57:37.837Z,10.50
2022-09-27T18:00:24.729Z,10.50
2022-09-27T18:03:11.686Z,10.50
2022-09-27T18:05:58.737Z,10.50
2022-09-27T18:08:46.243Z,10.50
2022-09-27T18:11:33.194Z,10.50
2022-09-27T18:14:20.279Z,10.50
2022-09-27T18:17:07.210Z,10.40
2022-09-27T18:19:56.088Z,10.40
2022-09-27T18:22:42.912Z,10.40
2022-09-27T18:25:30.397Z,10.50
2022-09-27T18:28:17.281Z,10.40
2022-09-27T18:31:06.656Z,10.50
2022-09-27T18:33:53.538Z,10.40
2022-09-27T18:36:41.578Z,10.40
2022-09-27T18:39:28.414Z,10.30
2022-09-27T18:42:15.878Z,10.40
2022-09-27T18:45:03.094Z,10.30
2022-09-27T18:47:50.026Z,10.30
2022-09-27T18:50:37.227Z,10.30
2022-09-27T18:53:24.306Z,10.30
2022-09-27T18:56:12.934Z,10.30
2022-09-27T18:59:00.535Z,10.30
2022-09-27T19:01:47.697Z,10.30
2022-09-27T19:04:34.655Z,10.20
2022-09-27T19:07:21.531Z,10.10
2022-09-27T19:10:09.719Z,10.20
2022-09-27T19:12:56.612Z,10.20
2022-09-27T19:15:53.715Z,10.20
2022-09-27T19:18:40.671Z,10.10
2022-09-27T19:21:29.030Z,10.10
2022-09-27T19:24:16.021Z,10.10
2022-09-27T19:27:02.978Z,10.00
2022-09-27T19:29:49.849Z,10.00
2022-09-27T19:32:37.390Z,10.10
2022-09-27T19:35:24.286Z,10.00
2022-09-27T19:38:11.160Z,10.00
2022-09-27T19:40:58.672Z,10.00
2022-09-27T19:43:50.661Z,10.60
2022-09-27T19:46:38.353Z,10.00
2022-09-27T19:49:25.976Z,10.00
2022-09-27T19:52:12.839Z,10.00
2022-09-27T19:54:59.691Z,9.90
2022-09-27T19:57:46.588Z,9.90
2022-09-27T20:00:33.399Z,10.50
2022-09-27T20:03:20.283Z,10.30
2022-09-27T20:06:10.536Z,9.90
2022-09-27T20:08:57.767Z,9.90
2022-09-27T20:11:45.163Z,9.80
2022-09-27T20:14:32.189Z,9.80
2022-09-27T20:17:19.020Z,9.80
2022-09-27T20:20:07.015Z,9.70
2022-09-27T20:22:54.488Z,9.70
2022-09-27T20:25:43.197Z,9.70
2022-09-27T20:28:30.373Z,9.70
2022-09-27T20:31:19.175Z,9.70
2022-09-27T20:34:08.410Z,9.60
2022-09-27T20:36:55.242Z,9.60
2022-09-27T20:39:42.869Z,9.60
2022-09-27T20:42:29.733Z,9.60
2022-09-27T20:45:16.606Z,9.60
2022-09-27T20:48:03.529Z,9.60
2022-09-27T20:50:56.647Z,9.60
2022-09-27T20:53:44.284Z,9.60
2022-09-27T20:56:33.196Z,9.50
2022-09-27T20:59:22.229Z,9.60
2022-09-27T21:02:09.412Z,9.60
2022-09-27T21:04:56.565Z,9.60
2022-09-27T21:07:43.425Z,9.60
2022-09-27T21:10:30.297Z,9.60
2022-09-27T21:13:18.225Z,9.60
2022-09-27T21:16:07.404Z,9.50
2022-09-27T21:18:56.186Z,9.50
2022-09-27T21:21:42.999Z,9.50
2022-09-27T21:24:29.834Z,9.50
2022-09-27T21:27:16.670Z,9.40
2022-09-27T21:30:05.335Z,9.50
2022-09-27T21:32:54.207Z,9.40
2022-09-27T21:35:41.050Z,9.50
2022-09-27T21:38:29.077Z,9.40
2022-09-27T21:41:16.849Z,9.40
2022-09-27T21:44:04.820Z,9.30
2022-09-27T21:46:52.366Z,9.30
2022-09-27T21:49:39.234Z,9.30
2022-09-27T21:52:27.094Z,9.30
2022-09-27T21:55:14.075Z,9.20
2022-09-27T21:58:00.911Z,9.20
2022-09-27T22:00:47.762Z,9.20
2022-09-27T22:03:35.762Z,9.20
2022-09-27T22:06:24.386Z,9.10
2022-09-27T22:09:14.040Z,9.20
2022-09-27T22:12:01.379Z,9.10
2022-09-27T22:14:48.243Z,9.10
2022-09-27T22:17:35.075Z,9.10
2022-09-27T22:20:22.526Z,9.10
2022-09-27T22:23:09.394Z,9.10
2022-09-27T22:25:56.506Z,9.10
2022-09-27T22:28:44.512Z,9.10
2022-09-27T22:31:31.468Z,9.00
2022-09-27T22:34:27.801Z,9.00
2022-09-27T22:37:15.259Z,9.00
2022-09-27T22:40:02.316Z,9.00
2022-09-27T22:42:49.171Z,9.30
2022-09-27T22:45:36.055Z,9.00
2022-09-27T22:48:23.036Z,9.00
2022-09-27T22:51:09.987Z,9.00
2022-09-27T22:53:57.461Z,9.00
2022-09-27T22:56:44.316Z,9.00
2022-09-27T22:59:31.149Z,9.00
2022-09-27T23:02:18.010Z,8.90
2022-09-27T23:05:05.793Z,8.90
2022-09-27T23:07:53.343Z,8.90
2022-09-27T23:10:41.121Z,8.90
2022-09-27T23:13:30.114Z,8.90
2022-09-27T23:16:19.245Z,8.90
2022-09-27T23:19:06.806Z,8.90
2022-09-27T23:21:53.631Z,8.90
2022-09-27T23:24:40.490Z,8.90
2022-09-27T23:27:44.786Z,8.90
2022-09-27T23:30:31.866Z,8.90
2022-09-27T23:33:19.075Z,8.80
2022-09-27T23:36:08.817Z,8.70
2022-09-27T23:38:59.275Z,8.70
2022-09-27T23:41:47.346Z,8.70
2022-09-27T23:44:34.854Z,8.80
2022-09-27T23:47:21.776Z,8.80
2022-09-27T23:50:09.375Z,8.80
2022-09-27T23:52:56.218Z,8.80
2022-09-27T23:55:43.046Z,8.80
2022-09-27T23:58:32.198Z,8.70
